Time;durP1;ratioP1;P1;durP2;ratioP2;P2;SDS_P1;SDS_P2;PMS_P1;PMS_P2;Temp;Humidity;BMP_temperature;BMP_pressure;BME280_temperature;BME280_humidity;BME280_pressure;Samples;Min_cycle;Max_cycle;Signal;HPM_P1;HPM_P2
2021/12/07 00:01:59;;;;;;;24.13;13.70;;;1.60;99.90;;;2.38;100.00;99684.97;5073497;28;20210;-66
2021/12/07 00:04:27;;;;;;;21.07;13.63;;;1.60;99.90;;;2.26;100.00;99682.94;5093208;28;20287;-67
2021/12/07 00:06:56;;;;;;;20.57;13.50;;;1.60;99.90;;;2.29;100.00;99671.94;5093147;28;20623;-67
2021/12/07 00:09:24;;;;;;;19.67;13.10;;;1.50;99.90;;;2.42;100.00;99667.66;5093035;28;20274;-67
2021/12/07 00:11:56;;;;;;;21.90;14.07;;;1.60;99.90;;;2.57;100.00;99665.06;5092634;28;20336;-68
2021/12/07 00:14:25;;;;;;;19.83;13.13;;;1.70;99.90;;;2.27;100.00;99658.00;5093614;28;20194;-68
2021/12/07 00:16:56;;;;;;;22.63;14.37;;;1.60;99.90;;;2.18;100.00;99643.97;5093493;28;20622;-67
2021/12/07 00:19:24;;;;;;;23.03;13.73;;;1.50;99.90;;;2.38;100.00;99646.97;5093872;28;20192;-68
2021/12/07 00:21:52;;;;;;;20.37;12.60;;;1.50;99.90;;;2.23;100.00;99638.94;5093826;28;20231;-67
2021/12/07 00:24:20;;;;;;;21.50;14.13;;;1.50;99.90;;;2.33;100.00;99642.16;5093627;28;20282;-68
2021/12/07 00:26:49;;;;;;;20.77;13.03;;;1.50;99.90;;;2.21;100.00;99633.00;5093468;28;20350;-68
2021/12/07 00:29:19;;;;;;;21.10;13.40;;;1.50;99.90;;;2.23;100.00;99630.16;5092716;28;20292;-68
2021/12/07 00:31:55;;;;;;;21.93;14.17;;;1.50;99.90;;;2.28;100.00;99623.28;5092076;28;20301;-67
2021/12/07 00:34:42;;;;;;;21.13;14.17;;;1.50;99.90;;;2.17;100.00;99617.56;5091620;28;20208;-67
2021/12/07 00:37:11;;;;;;;23.13;14.80;;;1.40;99.90;;;2.18;100.00;99614.72;5095533;28;20192;-68
2021/12/07 00:39:39;;;;;;;23.30;15.00;;;1.40;99.90;;;2.09;100.00;99612.34;5094707;28;20197;-67
2021/12/07 00:42:07;;;;;;;21.93;14.33;;;1.40;99.90;;;1.98;100.00;99605.63;5094944;28;20326;-68
2021/12/07 00:44:36;;;;;;;22.30;14.07;;;1.30;99.90;;;2.09;100.00;99604.38;5095324;28;20556;-68
2021/12/07 00:47:05;;;;;;;23.67;15.07;;;1.30;99.90;;;1.88;100.00;99606.84;5095033;28;20212;-68
2021/12/07 00:49:33;;;;;;;23.57;15.03;;;1.20;99.90;;;1.72;100.00;99602.50;5095273;28;20214;-68
2021/12/07 00:52:01;;;;;;;23.07;14.90;;;1.10;99.90;;;1.92;100.00;99600.19;5094932;28;20291;-68
2021/12/07 00:54:29;;;;;;;24.00;14.63;;;1.10;99.90;;;1.74;100.00;99608.44;5095178;28;20299;-68
2021/12/07 00:56:57;;;;;;;25.33;15.60;;;1.10;99.90;;;1.55;100.00;99608.94;5094787;28;20700;-68
2021/12/07 00:59:26;;;;;;;23.80;14.53;;;1.00;99.90;;;1.56;100.00;99610.56;5095022;28;20200;-67
2021/12/07 01:01:56;;;;;;;23.37;14.73;;;0.90;99.90;;;1.52;100.00;99598.69;5094993;28;20204;-68
2021/12/07 01:04:26;;;;;;;24.80;15.50;;;0.90;99.90;;;1.58;100.00;99597.97;5094953;28;20198;-67
2021/12/07 01:07:03;;;;;;;22.47;15.40;;;0.90;99.90;;;1.48;100.00;99592.06;5094506;28;20315;-69
2021/12/07 01:09:39;;;;;;;25.63;16.10;;;0.90;99.90;;;1.32;100.00;99591.34;5094852;28;20233;-68
2021/12/07 01:26:01;;;;;;;25.77;15.77;;;0.60;99.90;;;1.43;100.00;99583.81;5094308;28;20203;-68
2021/12/07 01:28:34;;;;;;;24.30;15.10;;;0.70;99.90;;;1.27;100.00;99583.06;5094293;28;20200;-69
2021/12/07 01:31:13;;;;;;;24.17;15.53;;;0.60;99.90;;;1.16;100.00;99579.00;5083568;28;20687;-69
2021/12/07 01:33:59;;;;;;;26.30;16.00;;;0.60;99.90;;;1.22;100.00;99581.75;5074158;28;20189;-68
2021/12/07 01:36:45;;;;;;;27.87;16.73;;;0.60;99.90;;;1.21;100.00;99584.59;5073895;28;20211;-68
2021/12/07 01:39:47;;;;;;;23.57;15.63;;;0.60;99.90;;;1.19;100.00;99573.34;5090010;28;20259;-68
2021/12/07 01:45:23;;;;;;;27.07;16.30;;;0.50;99.90;;;1.15;100.00;99580.81;5094247;28;20208;-67
2021/12/07 01:48:01;;;;;;;24.83;16.00;;;0.50;99.90;;;1.32;100.00;99578.06;5093482;28;20299;-68
2021/12/07 01:57:48;;;;;;;26.20;15.50;;;0.50;99.90;;;1.06;100.00;99565.97;5092281;28;20624;-68
2021/12/07 02:01:38;;;;;;;25.93;16.23;;;0.40;99.90;;;0.92;100.00;99544.63;5093564;28;20188;-68
2021/12/07 02:04:06;;;;;;;27.87;16.63;;;0.30;99.90;;;1.12;100.00;99540.53;5093886;28;20200;-67
2021/12/07 02:06:36;;;;;;;26.40;16.70;;;0.40;99.90;;;1.18;100.00;99532.72;5093653;28;20223;-67
2021/12/07 02:09:08;;;;;;;26.37;16.60;;;0.40;99.90;;;0.98;100.00;99528.06;5093944;28;20251;-68
2021/12/07 02:11:38;;;;;;;27.77;16.47;;;0.40;99.90;;;1.27;100.00;99530.84;5093728;28;20185;-67
2021/12/07 02:14:16;;;;;;;25.90;15.97;;;0.40;99.90;;;1.18;100.00;99522.09;5093911;28;20288;-68
2021/12/07 02:16:47;;;;;;;24.90;15.77;;;0.40;99.90;;;1.12;100.00;99514.88;5093193;28;20184;-67
2021/12/07 02:19:16;;;;;;;27.10;16.53;;;0.40;99.90;;;1.27;100.00;99512.28;5093508;28;20184;-67
2021/12/07 02:21:46;;;;;;;25.30;15.10;;;0.40;99.90;;;1.00;100.00;99515.44;5093321;28;20734;-68
2021/12/07 02:24:15;;;;;;;24.37;15.97;;;0.40;99.90;;;1.09;100.00;99517.88;5093563;28;20227;-67
2021/12/07 02:26:43;;;;;;;24.40;15.63;;;0.40;99.90;;;0.97;100.00;99508.66;5092927;28;20227;-68
2021/12/07 02:29:12;;;;;;;25.67;16.73;;;0.40;99.90;;;1.04;100.00;99503.47;5094084;28;20235;-68
2021/12/07 02:31:40;;;;;;;25.00;15.80;;;0.40;99.90;;;1.02;100.00;99501.00;5094378;28;20291;-68
2021/12/07 02:34:08;;;;;;;24.20;15.13;;;0.40;99.90;;;0.84;100.00;99496.97;5093789;28;20241;-67
2021/12/07 02:36:37;;;;;;;24.77;15.97;;;0.30;99.90;;;0.91;100.00;99505.88;5093326;28;20203;-67
2021/12/07 02:39:08;;;;;;;24.70;15.60;;;0.30;99.90;;;0.93;100.00;99496.75;5092854;28;20574;-68
2021/12/07 02:41:37;;;;;;;21.37;13.97;;;0.30;99.90;;;0.90;100.00;99496.28;5092620;28;20328;-68
2021/12/07 02:44:07;;;;;;;25.83;15.23;;;0.20;99.90;;;0.86;100.00;99484.38;5092934;28;20306;-68
2021/12/07 02:46:37;;;;;;;26.33;15.57;;;0.20;99.90;;;1.20;100.00;99487.47;5092845;28;20725;-67
2021/12/07 02:49:06;;;;;;;27.60;15.43;;;0.30;99.90;;;1.02;100.00;99487.75;5093066;28;20224;-68
2021/12/07 02:51:35;;;;;;;25.47;16.27;;;0.30;99.90;;;0.99;100.00;99492.56;5092898;28;20230;-67
2021/12/07 02:54:04;;;;;;;24.10;15.67;;;0.30;99.90;;;1.12;100.00;99482.22;5092576;28;20196;-68
2021/12/07 02:56:33;;;;;;;25.17;15.53;;;0.30;99.90;;;1.00;100.00;99481.78;5092525;28;20192;-68
2021/12/07 02:59:03;;;;;;;24.60;15.20;;;0.30;99.90;;;1.03;100.00;99475.34;5091634;28;20590;-68
2021/12/07 03:01:40;;;;;;;22.43;14.80;;;0.30;99.90;;;0.99;100.00;99468.72;5092158;28;20204;-68
2021/12/07 03:04:13;;;;;;;24.50;14.83;;;0.30;99.90;;;0.71;100.00;99472.88;5092460;28;20212;-68
2021/12/07 03:06:52;;;;;;;22.67;15.23;;;0.20;99.90;;;1.16;100.00;99478.22;5092091;28;20305;-68
2021/12/07 03:10:02;;;;;;;22.43;14.63;;;0.30;99.90;;;1.18;100.00;99463.75;5092180;28;20285;-68
2021/12/07 03:26:24;;;;;;;23.77;15.47;;;0.20;99.90;;;0.70;100.00;99474.69;5092173;28;20184;-69
2021/12/07 03:28:58;;;;;;;22.67;14.00;;;0.20;99.90;;;0.61;100.00;99474.91;5091909;28;20726;-68
2021/12/07 03:31:27;;;;;;;23.37;15.63;;;0.10;99.90;;;0.61;100.00;99474.91;5091919;28;20254;-67
2021/12/07 03:33:57;;;;;;;21.07;14.17;;;0.10;99.90;;;0.72;100.00;99478.00;5091806;28;20200;-67
2021/12/07 03:36:27;;;;;;;24.57;15.23;;;0.10;99.90;;;0.66;100.00;99478.69;5091983;28;20279;-67
2021/12/07 03:38:55;;;;;;;21.27;14.07;;;0.10;99.90;;;0.76;100.00;99471.31;5091639;28;20226;-68
2021/12/07 03:41:24;;;;;;;26.13;16.07;;;0.10;99.90;;;0.63;100.00;99473.72;5091444;28;20253;-68
2021/12/07 03:43:53;;;;;;;24.83;14.93;;;0.10;99.90;;;0.72;100.00;99478.00;5091781;28;20196;-67
2021/12/07 03:46:22;;;;;;;22.10;14.33;;;0.10;99.90;;;0.77;100.00;99478.31;5091519;28;20281;-68
2021/12/07 03:48:51;;;;;;;22.67;14.37;;;0.10;99.90;;;0.84;100.00;99481.91;5091340;28;20672;-68
2021/12/07 03:51:19;;;;;;;23.10;15.00;;;0.10;99.90;;;0.84;100.00;99479.25;5091295;28;20231;-68
2021/12/07 03:53:47;;;;;;;21.10;14.67;;;0.10;99.90;;;1.00;100.00;99470.34;5091417;28;20201;-69
2021/12/07 03:56:16;;;;;;;22.23;13.93;;;0.20;99.90;;;1.00;100.00;99463.25;5091646;28;20207;-68
2021/12/07 03:58:44;;;;;;;20.13;14.03;;;0.30;99.90;;;0.86;100.00;99469.28;5091341;28;20259;-67
2021/12/07 04:01:14;;;;;;;20.57;13.87;;;0.20;99.90;;;0.84;100.00;99475.78;5092422;28;20260;-68
2021/12/07 04:03:45;;;;;;;20.43;13.90;;;0.20;99.90;;;0.93;100.00;99472.88;5092924;28;20196;-68
2021/12/07 04:06:13;;;;;;;20.23;12.90;;;0.20;99.90;;;0.79;100.00;99472.81;5091959;28;20215;-67
2021/12/07 04:08:42;;;;;;;23.03;14.37;;;0.20;99.90;;;0.61;100.00;99472.28;5091009;28;20230;-68
2021/12/07 04:11:11;;;;;;;22.57;14.00;;;0.10;99.90;;;0.86;100.00;99481.72;5093900;28;20725;-68
2021/12/07 04:13:40;;;;;;;21.20;13.70;;;0.20;99.90;;;0.85;100.00;99480.06;5095735;28;20572;-68
2021/12/07 04:16:09;;;;;;;21.23;13.43;;;0.20;99.90;;;0.78;100.00;99481.75;5095182;28;20703;-68
2021/12/07 04:18:39;;;;;;;19.20;13.53;;;0.20;99.90;;;0.80;100.00;99485.91;5095011;28;20304;-68
2021/12/07 04:21:07;;;;;;;22.53;13.97;;;0.20;99.90;;;0.79;100.00;99475.47;5095623;28;20302;-67
2021/12/07 04:23:37;;;;;;;20.13;13.20;;;0.10;99.90;;;0.71;100.00;99480.81;5095474;28;20210;-68
2021/12/07 04:26:09;;;;;;;22.63;13.40;;;0.10;99.90;;;0.76;100.00;99483.78;5095422;28;20208;-67
2021/12/07 04:28:38;;;;;;;21.20;13.00;;;0.10;99.90;;;0.66;100.00;99486.63;5095324;28;20205;-67
2021/12/07 04:31:07;;;;;;;21.53;13.37;;;0.10;99.90;;;0.66;100.00;99480.53;5095235;28;20207;-68
2021/12/07 04:33:36;;;;;;;19.27;13.30;;;0.10;99.90;;;0.59;100.00;99482.22;5095256;28;20619;-67
2021/12/07 04:36:08;;;;;;;20.23;13.20;;;0.10;99.90;;;0.61;100.00;99485.50;5095151;28;20254;-68
2021/12/07 04:38:37;;;;;;;21.30;13.83;;;0.00;99.90;;;0.72;100.00;99472.69;5094993;28;20196;-68
2021/12/07 04:41:05;;;;;;;20.37;13.57;;;0.10;99.90;;;0.85;100.00;99466.81;5095058;28;20302;-68
2021/12/07 04:43:34;;;;;;;21.00;13.33;;;0.10;99.90;;;0.78;100.00;99477.28;5094926;28;20200;-68
2021/12/07 04:46:11;;;;;;;20.63;12.80;;;0.10;99.90;;;0.80;100.00;99472.66;5095016;28;20207;-67
2021/12/07 04:49:26;;;;;;;21.70;13.13;;;0.10;99.90;;;0.82;100.00;99473.31;5095014;28;20603;-67
2021/12/07 04:57:43;;;;;;;18.93;12.37;;;0.10;99.90;;;0.98;100.00;99464.44;5094892;28;20184;-68
2021/12/07 05:00:17;;;;;;;19.47;12.63;;;0.20;99.90;;;0.98;100.00;99467.88;5094772;28;20224;-68
2021/12/07 05:02:52;;;;;;;18.57;12.27;;;0.20;99.90;;;0.78;100.00;99460.56;5094701;28;20588;-68
2021/12/07 05:05:28;;;;;;;18.07;12.60;;;0.20;99.90;;;0.78;100.00;99465.84;5094776;28;20241;-68
2021/12/07 05:08:01;;;;;;;17.60;11.77;;;0.20;99.90;;;0.71;100.00;99464.94;5094787;28;20406;-68
2021/12/07 05:10:33;;;;;;;19.17;12.70;;;0.10;99.90;;;0.72;100.00;99463.91;5094409;28;20270;-67
2021/12/07 05:18:52;;;;;;;16.90;11.90;;;0.20;99.90;;;0.82;100.00;99465.34;5094331;28;20200;-69
2021/12/07 05:24:12;;;;;;;17.60;12.37;;;0.20;99.90;;;1.07;100.00;99473.97;5094197;28;20700;-68
2021/12/07 05:37:53;;;;;;;19.30;12.13;;;0.30;99.90;;;1.06;100.00;99464.38;5094860;28;20277;-69
2021/12/07 05:40:26;;;;;;;18.87;11.90;;;0.40;99.90;;;1.11;100.00;99462.84;5093873;28;20180;-68
2021/12/07 05:42:55;;;;;;;16.10;11.20;;;0.40;99.90;;;1.05;100.00;99460.03;5094290;28;20229;-68
2021/12/07 05:45:30;;;;;;;15.90;11.70;;;0.40;99.90;;;1.08;100.00;99465.81;5093906;28;20205;-68
2021/12/07 05:47:59;;;;;;;18.57;11.87;;;0.40;99.90;;;1.24;100.00;99467.53;5093664;28;20233;-68
2021/12/07 05:50:30;;;;;;;16.67;11.67;;;0.50;99.90;;;1.20;100.00;99464.41;5093834;28;20227;-68
2021/12/07 05:53:00;;;;;;;17.37;11.47;;;0.50;99.90;;;1.53;100.00;99469.47;5093890;28;20208;-69
2021/12/07 05:55:29;;;;;;;17.00;11.93;;;0.60;99.90;;;1.30;100.00;99476.63;5093110;28;20206;-69
2021/12/07 05:57:58;;;;;;;16.90;11.63;;;0.60;99.90;;;1.28;100.00;99476.81;5093610;28;20295;-67
2021/12/07 06:00:30;;;;;;;18.97;11.53;;;0.60;99.90;;;1.29;100.00;99475.78;5093489;28;20202;-67
2021/12/07 06:03:01;;;;;;;16.47;10.97;;;0.60;99.90;;;1.20;100.00;99477.69;5093130;28;20192;-67
2021/12/07 06:05:31;;;;;;;15.90;10.97;;;0.60;99.90;;;1.18;100.00;99478.88;5093763;28;20236;-68
2021/12/07 06:07:59;;;;;;;17.07;11.03;;;0.50;99.90;;;1.32;100.00;99479.94;5094030;28;20287;-67
2021/12/07 06:10:29;;;;;;;17.40;11.53;;;0.60;99.90;;;1.23;100.00;99476.50;5093688;28;20199;-67
2021/12/07 06:12:57;;;;;;;16.63;11.63;;;0.60;99.90;;;1.28;100.00;99471.50;5093594;28;20212;-67
2021/12/07 06:15:28;;;;;;;16.27;11.23;;;0.60;99.90;;;1.32;100.00;99478.09;5093802;28;20202;-68
2021/12/07 06:17:56;;;;;;;18.03;12.07;;;0.60;99.90;;;1.36;100.00;99484.69;5093970;28;20191;-67
2021/12/07 06:20:24;;;;;;;16.90;11.73;;;0.60;99.90;;;1.34;100.00;99477.94;5093557;28;20642;-67
2021/12/07 06:23:17;;;;;;;15.93;11.60;;;0.60;99.90;;;1.36;100.00;99479.38;5093443;28;20212;-69
2021/12/07 06:25:49;;;;;;;19.87;12.43;;;0.60;99.90;;;1.38;100.00;99476.56;5093429;28;20215;-67
2021/12/07 06:28:18;;;;;;;15.80;10.80;;;0.60;99.90;;;1.16;100.00;99467.59;5093827;28;20236;-68
2021/12/07 06:30:48;;;;;;;18.07;12.03;;;0.60;99.90;;;1.34;100.00;99473.44;5093466;28;20200;-68
2021/12/07 06:33:21;;;;;;;17.00;11.93;;;0.60;99.90;;;1.21;100.00;99475.84;5093149;28;20682;-68
2021/12/07 06:35:56;;;;;;;16.27;11.33;;;0.60;99.90;;;1.24;100.00;99468.38;5093528;28;20188;-68
2021/12/07 06:38:25;;;;;;;16.07;11.17;;;0.60;99.90;;;1.50;100.00;99467.16;5093356;28;20217;-68
2021/12/07 06:40:54;;;;;;;19.70;11.97;;;0.60;99.90;;;1.45;100.00;99469.53;5093184;28;20228;-68
2021/12/07 06:43:23;;;;;;;20.03;12.07;;;0.70;99.90;;;1.36;100.00;99468.78;5093448;28;20233;-68
2021/12/07 06:45:52;;;;;;;16.00;11.20;;;0.70;99.90;;;1.54;100.00;99461.31;5093392;28;20582;-68
2021/12/07 06:48:21;;;;;;;17.47;12.10;;;0.70;99.90;;;1.50;100.00;99464.53;5093529;28;20313;-68
2021/12/07 06:50:50;;;;;;;15.67;11.20;;;0.70;99.90;;;1.52;100.00;99468.66;5093250;28;20246;-68
2021/12/07 06:53:18;;;;;;;17.20;11.13;;;0.80;99.90;;;1.56;100.00;99472.59;5092980;28;20650;-67
2021/12/07 06:55:46;;;;;;;18.00;11.47;;;0.80;99.90;;;1.67;100.00;99474.00;5092969;28;20306;-68
2021/12/07 06:58:16;;;;;;;16.03;11.10;;;0.90;99.90;;;1.78;100.00;99474.38;5093038;28;20685;-67
2021/12/07 07:00:44;;;;;;;15.47;11.13;;;0.90;99.90;;;1.73;100.00;99478.56;5093169;28;20252;-69
2021/12/07 07:03:13;;;;;;;15.70;10.83;;;1.00;99.90;;;1.96;100.00;99479.34;5092832;28;20231;-68
2021/12/07 07:05:41;;;;;;;15.90;11.07;;;1.00;99.90;;;1.95;100.00;99485.66;5093047;28;20207;-68
2021/12/07 07:08:09;;;;;;;17.07;12.13;;;1.10;99.90;;;1.92;100.00;99486.84;5092191;28;20246;-68
2021/12/07 07:10:37;;;;;;;15.90;10.83;;;1.10;99.90;;;1.85;100.00;99493.88;5092791;28;20223;-68
2021/12/07 07:13:06;;;;;;;16.20;10.90;;;1.10;99.90;;;1.89;100.00;99497.84;5092801;28;20295;-67
2021/12/07 07:15:35;;;;;;;16.97;10.87;;;1.20;99.90;;;1.96;100.00;99498.75;5092585;28;20204;-68
2021/12/07 07:18:03;;;;;;;18.33;11.73;;;1.20;99.90;;;2.28;100.00;99500.25;5092639;28;20532;-67
2021/12/07 07:20:32;;;;;;;16.90;10.53;;;1.30;99.90;;;2.11;100.00;99502.28;5092784;28;20298;-68
2021/12/07 07:23:00;;;;;;;17.03;11.13;;;1.30;99.90;;;2.25;100.00;99498.78;5092319;28;20268;-67
2021/12/07 07:25:28;;;;;;;20.20;11.90;;;1.40;99.90;;;2.16;100.00;99502.56;5092546;28;20200;-67
2021/12/07 07:27:56;;;;;;;16.33;10.80;;;1.40;99.90;;;2.17;100.00;99508.66;5092365;28;20711;-68
2021/12/07 07:30:25;;;;;;;16.83;11.17;;;1.40;99.90;;;2.35;100.00;99511.81;5092588;28;20222;-68
2021/12/07 07:32:54;;;;;;;15.33;11.03;;;1.50;99.90;;;2.42;100.00;99507.38;5092205;28;20199;-69
2021/12/07 07:35:23;;;;;;;16.93;11.50;;;1.50;99.90;;;2.32;100.00;99515.63;5092631;28;20287;-68
2021/12/07 07:37:52;;;;;;;17.87;11.57;;;1.50;99.90;;;2.41;100.00;99519.03;5092076;28;20675;-68
2021/12/07 07:40:23;;;;;;;18.63;11.50;;;1.50;99.90;;;2.29;100.00;99518.66;5092297;28;20231;-68
2021/12/07 07:42:52;;;;;;;17.43;11.27;;;1.60;99.90;;;2.38;100.00;99516.75;5092554;28;20227;-68
2021/12/07 07:45:20;;;;;;;17.10;11.17;;;1.60;99.90;;;2.32;100.00;99517.47;5091713;28;20206;-68
2021/12/07 07:47:48;;;;;;;17.23;11.50;;;1.60;99.90;;;2.32;100.00;99525.44;5091725;28;20645;-69
2021/12/07 07:50:17;;;;;;;18.80;12.93;;;1.60;99.90;;;2.34;100.00;99521.59;5092335;28;20258;-69
2021/12/07 07:52:45;;;;;;;18.90;12.47;;;1.60;99.90;;;2.32;100.00;99523.59;5092193;28;20821;-68
2021/12/07 07:55:15;;;;;;;17.77;12.03;;;1.60;99.90;;;2.71;100.00;99530.47;5092341;28;20208;-68
2021/12/07 07:57:43;;;;;;;17.50;11.83;;;1.70;99.90;;;2.78;100.00;99542.00;5092785;28;20203;-68
2021/12/07 08:00:16;;;;;;;17.33;11.90;;;1.80;99.90;;;2.76;100.00;99536.88;5086306;28;20201;-69
2021/12/07 08:02:46;;;;;;;18.73;11.60;;;1.80;99.90;;;2.62;100.00;99537.75;5079496;28;20198;-68
2021/12/07 08:05:17;;;;;;;20.47;11.67;;;1.90;99.90;;;2.54;100.00;99540.47;5091675;28;20203;-68
2021/12/07 08:07:47;;;;;;;20.17;12.60;;;1.80;99.90;;;2.67;100.00;99538.00;5092045;28;20230;-62
2021/12/07 08:10:20;;;;;;;19.63;12.03;;;1.80;99.90;;;2.52;100.00;99539.03;5091946;28;20227;-65
2021/12/07 08:12:49;;;;;;;18.47;12.17;;;1.80;99.90;;;2.72;100.00;99540.94;5088559;28;20625;-64
2021/12/07 08:15:18;;;;;;;18.30;12.60;;;1.90;99.90;;;2.65;100.00;99539.19;5089134;28;20198;-64
2021/12/07 08:17:45;;;;;;;19.07;11.67;;;1.90;99.90;;;2.77;100.00;99538.53;5088704;28;20202;-63
2021/12/07 08:20:13;;;;;;;16.77;12.20;;;1.90;99.90;;;2.69;100.00;99537.81;5089003;28;20196;-65
2021/12/07 08:22:43;;;;;;;18.00;10.83;;;1.90;99.90;;;2.76;100.00;99536.88;5088969;28;20302;-64
2021/12/07 08:25:11;;;;;;;20.90;12.33;;;1.90;99.90;;;2.76;100.00;99538.75;5088776;28;20288;-62
2021/12/07 08:27:39;;;;;;;19.93;13.07;;;1.90;99.90;;;2.77;100.00;99551.00;5088961;28;20286;-66
2021/12/07 08:30:12;;;;;;;21.20;13.33;;;1.90;99.90;;;2.70;100.00;99542.94;5088380;28;20317;-63
2021/12/07 08:32:45;;;;;;;18.23;12.50;;;1.90;99.90;;;2.69;100.00;99543.94;5088360;28;20239;-63
2021/12/07 08:35:15;;;;;;;19.03;12.37;;;2.00;99.90;;;2.87;100.00;99547.06;5088817;28;20188;-63
2021/12/07 08:37:46;;;;;;;19.27;12.43;;;2.00;99.90;;;2.81;100.00;99554.97;5088683;28;20283;-64
2021/12/07 08:40:17;;;;;;;17.70;12.10;;;2.10;99.90;;;2.85;100.00;99550.91;5088613;28;20180;-64
2021/12/07 08:42:46;;;;;;;19.77;13.03;;;2.10;99.90;;;3.07;100.00;99555.28;5088464;28;20220;-67
2021/12/07 08:45:14;;;;;;;21.20;12.83;;;2.20;99.90;;;3.14;100.00;99549.03;5088450;28;20203;-65
2021/12/07 08:47:42;;;;;;;20.07;12.63;;;2.30;99.90;;;3.16;100.00;99549.63;5088751;28;20294;-68
2021/12/07 08:50:15;;;;;;;19.13;12.57;;;2.30;99.90;;;3.29;100.00;99546.31;5088650;28;20252;-60
2021/12/07 08:52:45;;;;;;;19.90;12.40;;;2.40;99.90;;;3.21;100.00;99547.28;5088481;28;20230;-61
2021/12/07 09:00:48;;;;;;;15.97;11.87;;;2.50;99.90;;;3.26;100.00;99557.34;5092073;28;20196;-68
2021/12/07 09:03:16;;;;;;;19.93;12.50;;;2.50;99.90;;;3.52;100.00;99561.09;5091699;28;20288;-60
2021/12/07 09:05:44;;;;;;;19.13;11.70;;;2.60;99.90;;;3.39;100.00;99563.63;5092262;28;20202;-61
2021/12/07 09:08:14;;;;;;;20.87;13.20;;;2.60;99.90;;;3.50;100.00;99565.78;5092011;28;20300;-60
2021/12/07 09:10:42;;;;;;;19.07;12.63;;;2.70;99.90;;;3.49;100.00;99568.66;5091782;28;20252;-62
2021/12/07 09:13:11;;;;;;;18.27;12.50;;;2.70;99.90;;;3.51;100.00;99575.44;5092180;28;20205;-62
2021/12/07 09:15:40;;;;;;;19.63;13.07;;;2.70;99.90;;;3.88;100.00;99570.88;5092215;28;20243;-64
2021/12/07 09:18:08;;;;;;;18.47;13.13;;;2.80;99.90;;;3.77;100.00;99577.53;5091481;28;20201;-68
2021/12/07 09:20:37;;;;;;;21.20;13.43;;;2.90;99.90;;;3.72;100.00;99572.78;5091637;28;20197;-68
2021/12/07 09:23:05;;;;;;;18.60;12.63;;;2.90;99.90;;;3.66;100.00;99567.38;5092232;28;20242;-66
2021/12/07 09:25:35;;;;;;;19.50;12.20;;;2.90;99.90;;;3.59;100.00;99561.16;5091860;28;20251;-66
2021/12/07 09:28:05;;;;;;;18.57;12.43;;;2.90;99.90;;;3.71;100.00;99565.81;5092155;28;20239;-65
2021/12/07 09:30:33;;;;;;;19.33;12.93;;;2.90;99.90;;;3.56;100.00;99573.03;5091722;28;20314;-65
2021/12/07 09:33:01;;;;;;;19.90;13.20;;;2.80;99.90;;;3.61;100.00;99572.47;5091592;28;20561;-63
2021/12/07 09:35:30;;;;;;;20.40;12.57;;;2.80;99.90;;;3.58;100.00;99580.84;5091857;28;20195;-63
2021/12/07 09:37:59;;;;;;;20.30;12.53;;;2.80;99.90;;;3.70;100.00;99592.63;5091657;28;20556;-62
2021/12/07 09:40:29;;;;;;;19.20;12.77;;;2.90;99.90;;;3.84;100.00;99586.41;5091252;28;20179;-63
2021/12/07 09:42:59;;;;;;;20.33;12.13;;;3.00;99.90;;;3.89;100.00;99584.00;5091827;28;20580;-60
2021/12/07 09:45:31;;;;;;;17.53;12.30;;;3.00;99.90;;;3.95;100.00;99587.72;5091431;28;20232;-61
2021/12/07 09:48:01;;;;;;;19.40;13.17;;;3.10;99.90;;;3.91;100.00;99591.81;5091613;28;20189;-62
2021/12/07 09:50:30;;;;;;;18.83;12.50;;;3.10;99.90;;;3.95;100.00;99585.91;5091121;28;20307;-62
2021/12/07 09:53:00;;;;;;;19.93;12.57;;;3.10;99.90;;;3.93;100.00;99589.75;5091502;28;20212;-62
2021/12/07 09:55:29;;;;;;;17.83;12.57;;;3.20;99.90;;;4.04;100.00;99592.75;5091032;28;20224;-60
2021/12/07 09:57:59;;;;;;;20.00;12.77;;;3.20;99.90;;;4.21;100.00;99585.31;5090556;28;20631;-64
2021/12/07 10:00:28;;;;;;;20.17;12.67;;;3.30;99.90;;;4.31;100.00;99586.59;5090668;28;20235;-63
2021/12/07 10:02:56;;;;;;;19.97;13.33;;;3.40;99.90;;;4.39;100.00;99597.13;5090437;28;20194;-63
2021/12/07 10:05:31;;;;;;;18.70;11.77;;;3.40;99.90;;;4.66;100.00;99590.97;5090556;28;20210;-64
2021/12/07 10:07:59;;;;;;;23.27;11.97;;;3.60;99.90;;;4.83;100.00;99588.81;5090658;28;20278;-63
2021/12/07 10:10:32;;;;;;;16.50;11.57;;;3.70;99.90;;;4.78;100.00;99581.41;5090556;28;20315;-60
2021/12/07 10:13:04;;;;;;;19.63;13.17;;;3.70;99.90;;;4.79;100.00;99584.88;5091033;28;20194;-60
2021/12/07 10:15:32;;;;;;;20.83;12.90;;;3.80;99.90;;;4.77;100.00;99574.41;5090411;28;20184;-61
2021/12/07 10:18:05;;;;;;;18.40;12.70;;;3.80;99.90;;;4.74;100.00;99577.47;5090260;28;20235;-60
2021/12/07 10:20:43;;;;;;;20.00;13.23;;;3.80;99.90;;;4.82;100.00;99579.16;5090631;28;20181;-60
2021/12/07 10:23:35;;;;;;;20.97;13.47;;;3.90;99.90;;;4.99;100.00;99577.78;5090320;28;20277;-60
2021/12/07 10:26:10;;;;;;;16.40;11.70;;;4.00;99.90;;;5.11;100.00;99581.53;5090187;28;20191;-59
2021/12/07 10:28:42;;;;;;;16.40;12.00;;;4.10;99.90;;;5.06;100.00;99575.19;5090491;28;20784;-59
2021/12/07 10:31:30;;;;;;;19.57;12.37;;;4.20;99.90;;;4.99;100.00;99577.78;5090462;28;20298;-61
2021/12/07 10:34:03;;;;;;;19.10;12.60;;;4.20;99.90;;;5.07;100.00;99574.97;5090520;28;20193;-61
2021/12/07 10:36:34;;;;;;;18.60;12.13;;;4.20;99.90;;;5.00;100.00;99579.44;5089929;28;20284;-59
2021/12/07 10:39:12;;;;;;;18.67;12.20;;;4.20;99.90;;;5.02;100.00;99582.75;5090008;28;20289;-59
2021/12/07 10:41:44;;;;;;;16.53;11.83;;;4.10;99.90;;;4.96;100.00;99579.03;5089946;28;20321;-60
2021/12/07 10:44:17;;;;;;;18.10;12.80;;;4.20;99.90;;;4.83;100.00;99575.47;5090162;28;20195;-61
2021/12/07 10:46:56;;;;;;;18.97;13.13;;;4.10;99.90;;;4.66;100.00;99574.97;5090089;28;20297;-61
2021/12/07 10:49:42;;;;;;;17.43;11.80;;;4.10;99.90;;;4.60;100.00;99577.59;5090094;28;20204;-62
2021/12/07 10:52:24;;;;;;;16.80;12.30;;;4.00;99.90;;;4.61;100.00;99577.41;5090081;28;20735;-60
2021/12/07 10:55:07;;;;;;;18.00;11.87;;;3.90;99.90;;;4.66;100.00;99584.81;5069439;28;20650;-53
2021/12/07 10:57:39;;;;;;;18.87;13.10;;;3.90;99.90;;;4.75;100.00;99576.44;5069468;28;20273;-56
2021/12/07 11:00:20;;;;;;;17.23;11.90;;;3.90;99.90;;;4.99;100.00;99572.44;5069546;28;20216;-55
2021/12/07 11:02:54;;;;;;;21.03;12.60;;;4.00;99.90;;;5.18;100.00;99569.06;5077492;28;20720;-64
2021/12/07 11:05:27;;;;;;;15.33;11.40;;;4.20;99.90;;;5.33;100.00;99566.25;5091037;28;20258;-64
2021/12/07 11:07:56;;;;;;;17.70;11.33;;;4.30;99.90;;;5.48;100.00;99561.56;5090584;28;20232;-66
2021/12/07 11:10:30;;;;;;;16.23;10.60;;;4.40;99.90;;;5.45;100.00;99567.28;5089580;28;20199;-64
2021/12/07 11:13:11;;;;;;;15.60;11.50;;;4.50;99.90;;;5.78;100.00;99558.34;5089880;28;20229;-65
2021/12/07 11:15:49;;;;;;;15.67;11.30;;;4.50;99.90;;;5.78;100.00;99568.19;5089735;28;20183;-66
2021/12/07 11:18:22;;;;;;;14.77;10.43;;;4.70;99.90;;;6.00;100.00;99572.38;5089521;28;20186;-67
2021/12/07 11:20:52;;;;;;;16.93;11.27;;;4.70;99.90;;;5.74;100.00;99567.78;5088927;28;20366;-67
2021/12/07 11:23:26;;;;;;;13.97;10.67;;;4.70;99.90;;;5.75;100.00;99571.28;5089418;28;20205;-66
2021/12/07 11:31:39;;;;;;;12.87;9.63;;;4.70;99.90;;;5.69;100.00;99564.06;5090650;28;20315;-66
2021/12/07 11:34:12;;;;;;;12.80;8.97;;;4.80;99.90;;;5.76;100.00;99568.41;5091400;28;20198;-65
2021/12/07 11:36:43;;;;;;;14.00;10.23;;;4.70;99.90;;;5.72;100.00;99577.84;5090859;28;20190;-65
2021/12/07 11:39:26;;;;;;;13.50;9.40;;;4.80;99.90;;;6.09;100.00;99571.94;5090476;28;20584;-64
2021/12/07 11:41:59;;;;;;;13.40;8.70;;;4.80;99.90;;;6.22;100.00;99569.25;5090098;28;20314;-64
2021/12/07 11:44:29;;;;;;;12.50;9.30;;;4.80;99.90;;;5.99;100.00;99568.03;5091429;28;20271;-71
2021/12/07 11:47:01;;;;;;;11.07;8.97;;;4.80;99.90;;;5.90;100.00;99580.75;5091642;28;20235;-70